Time;durP1;ratioP1;P1;durP2;ratioP2;P2;SDS_P1;SDS_P2;PMS_P1;PMS_P2;Temp;Humidity;BMP_temperature;BMP_pressure;BME280_temperature;BME280_humidity;BME280_pressure;Samples;Min_cycle;Max_cycle;Signal;HPM_P1;HPM_P2
2022/06/08 00:02:30;;;;;;;0.85;0.85;;;21.70;70.20;;;;;;5014325;28;20192;-75
2022/06/08 00:04:55;;;;;;;1.05;0.88;;;21.70;70.10;;;;;;5030956;28;20215;-74
2022/06/08 00:07:21;;;;;;;0.70;0.70;;;21.70;70.10;;;;;;5028821;28;20198;-75
2022/06/08 00:09:47;;;;;;;0.80;0.80;;;21.70;70.10;;;;;;5014056;28;20186;-75
2022/06/08 00:12:13;;;;;;;0.80;0.70;;;21.70;70.00;;;;;;5031141;28;20240;-75
2022/06/08 00:14:39;;;;;;;0.85;0.85;;;21.70;70.00;;;;;;5032026;28;20229;-75
2022/06/08 00:17:05;;;;;;;0.80;0.70;;;21.70;70.10;;;;;;5014590;28;20187;-75
2022/06/08 00:19:31;;;;;;;3.90;1.10;;;21.70;70.10;;;;;;5030989;28;20210;-75
2022/06/08 00:21:57;;;;;;;1.00;0.73;;;21.60;70.00;;;;;;5042836;28;20179;-75
2022/06/08 00:24:23;;;;;;;0.73;0.73;;;21.70;70.00;;;;;;5033979;28;20178;-75
2022/06/08 00:26:49;;;;;;;0.60;0.60;;;21.70;70.00;;;;;;5034035;28;20182;-75
2022/06/08 00:29:15;;;;;;;1.77;0.80;;;21.70;70.00;;;;;;5050725;28;20190;-75
2022/06/08 00:31:42;;;;;;;0.60;0.60;;;21.60;69.90;;;;;;5024355;28;20175;-75
2022/06/08 00:34:08;;;;;;;0.75;0.75;;;21.70;70.00;;;;;;5017279;28;20266;-75
2022/06/08 00:36:34;;;;;;;0.70;0.70;;;21.60;69.90;;;;;;5034593;28;20226;-75
2022/06/08 00:38:59;;;;;;;0.70;0.68;;;21.70;70.00;;;;;;5018160;28;20187;-75
2022/06/08 00:41:43;;;;;;;0.70;0.70;;;21.70;69.90;;;;;;5035701;28;20194;-75
2022/06/08 00:44:36;;;;;;;0.77;0.77;;;21.60;69.80;;;;;;5034277;28;20195;-75
2022/06/08 00:47:05;;;;;;;2.70;2.25;;;21.70;69.80;;;;;;5014914;28;20280;-75
2022/06/08 00:49:51;;;;;;;2.38;2.00;;;21.70;69.90;;;;;;5034523;28;20230;-75
2022/06/08 00:52:19;;;;;;;2.22;1.60;;;21.60;69.70;;;;;;5037886;28;20179;-75
2022/06/08 00:54:52;;;;;;;1.58;1.20;;;21.70;69.80;;;;;;5017956;28;20265;-75
2022/06/08 00:57:30;;;;;;;1.73;1.00;;;21.60;69.70;;;;;;5034356;28;20191;-75
2022/06/08 01:00:18;;;;;;;1.30;1.10;;;21.70;69.80;;;;;;5034423;28;20183;-75
2022/06/08 01:02:44;;;;;;;2.33;1.50;;;21.70;69.80;;;;;;5017592;28;20187;-75
2022/06/08 01:05:50;;;;;;;1.25;1.00;;;21.60;69.70;;;;;;5033872;28;20211;-74
2022/06/08 01:08:28;;;;;;;2.50;1.50;;;21.60;69.60;;;;;;5033292;28;20191;-74
2022/06/08 01:11:04;;;;;;;1.35;1.25;;;21.70;69.70;;;;;;5018594;28;20620;-74
2022/06/08 01:13:34;;;;;;;1.85;1.23;;;21.60;69.60;;;;;;5017691;28;20197;-74
2022/06/08 01:16:07;;;;;;;1.08;1.00;;;21.70;69.70;;;;;;5017989;28;20211;-75
2022/06/08 01:18:34;;;;;;;1.20;1.10;;;21.60;69.60;;;;;;5033830;28;20183;-74
2022/06/08 01:21:21;;;;;;;1.17;0.98;;;21.60;69.60;;;;;;5025336;28;20184;-74
2022/06/08 01:24:00;;;;;;;1.60;1.25;;;21.60;69.60;;;;;;5018376;28;20198;-74
2022/06/08 01:27:18;;;;;;;1.73;1.15;;;21.70;69.60;;;;;;5033663;28;20219;-74
2022/06/08 01:30:22;;;;;;;1.25;1.13;;;21.60;69.50;;;;;;5012973;28;20813;-74
2022/06/08 01:33:34;;;;;;;1.60;1.17;;;21.60;69.50;;;;;;4996311;28;20203;-74
2022/06/08 01:36:32;;;;;;;1.75;1.02;;;21.60;69.50;;;;;;5033762;28;20211;-74
2022/06/08 01:39:47;;;;;;;1.20;1.10;;;21.60;69.50;;;;;;5033558;28;20194;-74
2022/06/08 01:42:28;;;;;;;1.17;1.00;;;21.60;69.40;;;;;;5033456;28;20236;-74
2022/06/08 01:45:37;;;;;;;1.27;1.17;;;21.60;69.40;;;;;;5032414;28;20211;-73
2022/06/08 01:48:26;;;;;;;1.13;1.02;;;21.60;69.40;;;;;;5016615;28;20645;-74
2022/06/08 01:51:06;;;;;;;1.13;1.00;;;21.60;69.30;;;;;;5033137;28;20190;-74
2022/06/08 01:53:48;;;;;;;1.23;1.00;;;21.60;69.40;;;;;;5045334;28;20228;-74
2022/06/08 01:56:44;;;;;;;1.40;0.90;;;21.60;69.30;;;;;;5036417;28;20218;-74
2022/06/08 01:59:38;;;;;;;1.17;1.00;;;21.60;69.30;;;;;;5053255;28;20182;-75
2022/06/08 02:02:29;;;;;;;1.30;1.20;;;21.60;69.30;;;;;;5036482;28;20240;-74
2022/06/08 02:05:14;;;;;;;1.10;1.00;;;21.60;69.30;;;;;;5052966;28;20273;-75
2022/06/08 02:08:04;;;;;;;0.90;0.88;;;21.60;69.30;;;;;;5034809;28;20190;-75
2022/06/08 02:10:54;;;;;;;1.30;1.20;;;21.60;69.20;;;;;;5013332;28;20195;-75
2022/06/08 02:13:26;;;;;;;1.40;1.10;;;21.60;69.20;;;;;;5012988;28;20184;-75
2022/06/08 02:16:04;;;;;;;1.00;1.00;;;21.60;69.20;;;;;;5012906;28;20575;-74
2022/06/08 02:18:43;;;;;;;1.00;1.00;;;21.60;69.30;;;;;;5029395;28;20184;-75
2022/06/08 02:21:23;;;;;;;1.52;0.90;;;21.60;69.20;;;;;;5016892;28;20198;-75
2022/06/08 02:23:57;;;;;;;0.80;0.80;;;21.60;69.10;;;;;;5032504;28;20183;-75
2022/06/08 02:26:41;;;;;;;1.02;1.00;;;21.50;69.00;;;;;;5032507;28;20708;-75
2022/06/08 02:29:18;;;;;;;1.00;1.00;;;21.50;69.00;;;;;;5032147;28;20676;-75
2022/06/08 02:32:01;;;;;;;1.27;1.17;;;21.50;69.00;;;;;;5016348;28;20236;-75
2022/06/08 02:34:41;;;;;;;0.93;0.90;;;21.60;69.10;;;;;;5032397;28;20344;-75
2022/06/08 02:37:17;;;;;;;1.02;1.02;;;21.60;69.00;;;;;;5025516;28;20195;-74
2022/06/08 02:40:15;;;;;;;1.15;1.02;;;21.50;68.90;;;;;;4998207;28;20322;-75
2022/06/08 02:42:51;;;;;;;1.15;1.02;;;21.50;68.90;;;;;;5044162;28;20182;-75
2022/06/08 02:45:27;;;;;;;0.82;0.82;;;21.60;69.00;;;;;;5052401;28;20309;-75
2022/06/08 02:48:01;;;;;;;0.80;0.80;;;21.50;68.90;;;;;;5052256;28;20269;-75
2022/06/08 02:50:30;;;;;;;0.80;0.80;;;21.50;68.90;;;;;;5037084;28;20664;-74
2022/06/08 02:53:17;;;;;;;1.02;0.90;;;21.50;68.90;;;;;;5041602;28;20225;-74
2022/06/08 02:56:19;;;;;;;1.10;1.10;;;21.50;68.80;;;;;;5015938;28;20720;-74
2022/06/08 02:58:55;;;;;;;2.35;1.02;;;21.50;68.80;;;;;;5015474;28;20185;-74
2022/06/08 03:01:50;;;;;;;1.10;1.00;;;21.50;68.90;;;;;;5032149;28;20183;-75
2022/06/08 03:04:26;;;;;;;0.95;0.90;;;21.50;68.80;;;;;;5015533;28;20187;-76
2022/06/08 03:07:05;;;;;;;1.15;0.80;;;21.50;68.80;;;;;;5015415;28;20214;-77
2022/06/08 03:09:32;;;;;;;1.17;1.13;;;21.50;68.70;;;;;;5033942;28;20225;-77
2022/06/08 03:12:12;;;;;;;0.90;0.90;;;21.50;68.60;;;;;;5034888;28;20550;-76
2022/06/08 03:14:39;;;;;;;1.30;1.00;;;21.50;68.60;;;;;;5011538;28;20211;-75
2022/06/08 03:17:10;;;;;;;0.82;0.82;;;21.50;68.60;;;;;;4994701;28;20226;-76
2022/06/08 03:19:40;;;;;;;1.05;0.95;;;21.50;68.50;;;;;;5021213;28;20184;-75
2022/06/08 03:22:07;;;;;;;1.08;1.00;;;21.50;68.60;;;;;;5015173;28;20198;-76
2022/06/08 03:24:34;;;;;;;2.60;1.00;;;21.50;68.60;;;;;;5029650;28;20685;-75
2022/06/08 03:27:08;;;;;;;12.70;3.50;;;21.50;68.60;;;;;;5014465;28;20238;-74
2022/06/08 03:29:34;;;;;;;7.28;2.60;;;21.60;69.30;;;;;;5011938;28;20176;-74
2022/06/08 03:32:02;;;;;;;5.38;2.45;;;21.50;68.90;;;;;;4995596;28;20212;-75
2022/06/08 03:34:29;;;;;;;3.10;2.45;;;21.50;69.00;;;;;;5001027;22;20240;-69
2022/06/08 03:36:56;;;;;;;5.32;3.33;;;21.50;69.00;;;;;;4975595;28;20188;-69
2022/06/08 03:39:24;;;;;;;6.65;4.13;;;21.50;69.00;;;;;;4976514;28;20669;-70
2022/06/08 03:41:50;;;;;;;8.00;4.78;;;21.50;69.00;;;;;;4976255;28;20172;-70
2022/06/08 03:44:16;;;;;;;6.93;4.32;;;21.50;69.00;;;;;;4976342;28;20181;-70
2022/06/08 03:46:50;;;;;;;8.23;4.97;;;21.50;69.00;;;;;;4992221;28;20205;-70
2022/06/08 03:49:16;;;;;;;6.57;4.10;;;21.50;68.90;;;;;;4992119;28;20251;-70
2022/06/08 03:51:44;;;;;;;11.07;4.22;;;21.50;69.00;;;;;;4987512;28;20231;-69
2022/06/08 03:54:21;;;;;;;8.30;4.70;;;21.50;69.20;;;;;;4995879;28;20180;-71
2022/06/08 03:56:52;;;;;;;5.88;3.88;;;21.50;69.00;;;;;;5012142;28;20721;-70
2022/06/08 03:59:22;;;;;;;5.90;3.72;;;21.50;69.20;;;;;;5011783;28;20184;-69
2022/06/08 04:01:50;;;;;;;5.03;3.17;;;21.50;69.20;;;;;;5011506;28;20651;-72
2022/06/08 04:04:17;;;;;;;5.20;3.92;;;21.50;69.20;;;;;;5011916;28;20215;-70
2022/06/08 04:06:45;;;;;;;4.63;3.10;;;21.50;69.20;;;;;;5011372;28;20319;-70
2022/06/08 04:09:12;;;;;;;6.05;3.22;;;21.50;69.10;;;;;;5010576;28;20231;-70
2022/06/08 04:11:39;;;;;;;5.38;3.70;;;21.40;69.00;;;;;;5011552;28;20190;-71
2022/06/08 04:14:05;;;;;;;5.43;3.30;;;21.50;68.90;;;;;;5011651;28;20310;-70
2022/06/08 04:16:31;;;;;;;4.38;3.30;;;21.50;68.90;;;;;;5011344;28;20188;-70
2022/06/08 04:19:02;;;;;;;5.38;3.50;;;21.50;68.80;;;;;;5007799;28;20208;-70
2022/06/08 04:21:32;;;;;;;4.28;3.25;;;21.50;68.70;;;;;;4983674;28;20263;-70
2022/06/08 04:24:03;;;;;;;5.75;3.78;;;21.50;68.60;;;;;;4972492;28;20240;-70
2022/06/08 04:26:30;;;;;;;5.38;3.58;;;21.50;68.60;;;;;;4987530;28;20295;-70
2022/06/08 04:29:06;;;;;;;5.25;3.67;;;21.50;68.60;;;;;;4976230;28;20206;-71
2022/06/08 04:31:34;;;;;;;5.78;3.75;;;21.50;68.60;;;;;;4991597;28;20181;-70
2022/06/08 04:34:09;;;;;;;4.65;3.30;;;21.50;68.60;;;;;;4976416;28;20222;-71
2022/06/08 04:36:38;;;;;;;5.88;3.47;;;21.50;68.60;;;;;;4975520;28;20192;-70
2022/06/08 04:39:08;;;;;;;5.78;3.35;;;21.50;68.60;;;;;;4975351;28;20207;-70
2022/06/08 04:41:37;;;;;;;5.28;3.40;;;21.50;68.60;;;;;;4976236;28;20188;-70
2022/06/08 04:44:04;;;;;;;4.93;2.97;;;21.50;68.50;;;;;;4975755;28;20250;-70
2022/06/08 04:46:31;;;;;;;4.57;3.30;;;21.50;68.60;;;;;;4975302;28;20235;-70
2022/06/08 04:49:00;;;;;;;5.25;3.17;;;21.50;68.60;;;;;;4975231;28;20205;-69
2022/06/08 04:51:29;;;;;;;3.88;3.00;;;21.50;68.60;;;;;;4999394;28;20267;-70
2022/06/08 04:53:57;;;;;;;4.88;3.40;;;21.50;68.50;;;;;;4994937;28;20192;-70
2022/06/08 04:56:25;;;;;;;4.18;2.97;;;21.50;68.60;;;;;;5010920;28;20714;-70
2022/06/08 04:58:54;;;;;;;4.13;2.70;;;21.50;68.50;;;;;;5010564;28;20288;-70
2022/06/08 05:01:22;;;;;;;4.57;2.67;;;21.50;68.60;;;;;;5011305;28;20568;-70
2022/06/08 05:03:50;;;;;;;3.90;2.88;;;21.50;68.50;;;;;;5010957;28;20199;-70
2022/06/08 05:06:17;;;;;;;3.15;2.50;;;21.50;68.60;;;;;;5011034;28;20204;-70
2022/06/08 05:08:44;;;;;;;3.17;2.50;;;21.50;69.30;;;;;;5010366;28;20315;-70
2022/06/08 05:11:11;;;;;;;3.42;2.58;;;21.50;68.60;;;;;;5010918;28;20188;-70
2022/06/08 05:13:38;;;;;;;2.88;2.58;;;21.50;68.60;;;;;;5011362;28;20188;-70
2022/06/08 05:16:08;;;;;;;4.50;2.30;;;21.50;68.60;;;;;;5010806;28;20184;-70
2022/06/08 05:18:37;;;;;;;5.88;2.67;;;21.50;68.60;;;;;;5011196;28;20238;-70
2022/06/08 05:21:09;;;;;;;3.88;2.97;;;21.50;68.60;;;;;;5006622;28;20184;-70
2022/06/08 05:23:39;;;;;;;3.28;2.55;;;21.50;68.50;;;;;;4998409;28;20219;-70
2022/06/08 05:26:12;;;;;;;4.35;2.40;;;21.50;68.60;;;;;;4994748;28;20209;-71
2022/06/08 05:28:40;;;;;;;3.35;2.60;;;21.50;68.60;;;;;;4994300;28;20228;-70
2022/06/08 05:31:07;;;;;;;6.10;2.65;;;21.50;68.60;;;;;;4994679;28;20184;-70
2022/06/08 05:33:37;;;;;;;4.35;2.53;;;21.50;68.60;;;;;;4994803;28;20188;-70
2022/06/08 05:36:11;;;;;;;3.20;2.17;;;21.50;68.60;;;;;;4994570;28;20184;-70
2022/06/08 05:38:38;;;;;;;3.05;2.13;;;21.50;68.60;;;;;;4994353;28;20223;-70
2022/06/08 05:41:05;;;;;;;3.22;2.20;;;21.50;68.60;;;;;;4994920;28;20195;-70
2022/06/08 05:43:34;;;;;;;2.67;2.30;;;21.50;68.60;;;;;;4994690;28;20267;-71
2022/06/08 05:46:00;;;;;;;3.00;2.30;;;21.50;68.60;;;;;;4994418;28;20207;-70
2022/06/08 05:48:27;;;;;;;3.97;2.60;;;21.50;68.60;;;;;;4994068;28;20205;-70
2022/06/08 05:50:57;;;;;;;2.50;2.03;;;21.50;68.60;;;;;;4990268;28;20271;-71
2022/06/08 05:53:25;;;;;;;3.35;2.13;;;21.50;68.60;;;;;;4999567;28;20184;-70
2022/06/08 05:55:51;;;;;;;3.22;2.28;;;21.50;68.60;;;;;;4994697;28;20244;-71
2022/06/08 05:58:17;;;;;;;3.13;2.10;;;21.50;68.60;;;;;;4993739;28;20209;-70
2022/06/08 06:00:45;;;;;;;3.00;2.20;;;21.50;68.60;;;;;;4994298;28;20204;-70
2022/06/08 06:03:17;;;;;;;3.17;2.22;;;21.50;68.60;;;;;;5010825;28;20205;-70
2022/06/08 06:05:43;;;;;;;3.22;2.13;;;21.50;68.50;;;;;;4994319;28;20209;-70
2022/06/08 06:08:13;;;;;;;2.85;2.15;;;21.50;68.60;;;;;;4993723;28;20209;-70
2022/06/08 06:10:46;;;;;;;2.92;1.95;;;21.50;68.60;;;;;;4994103;28;20226;-71
2022/06/08 06:13:20;;;;;;;3.70;2.08;;;21.50;68.60;;;;;;4994181;28;20181;-70
2022/06/08 06:15:51;;;;;;;2.53;1.90;;;21.60;68.60;;;;;;4994207;28;20189;-71
2022/06/08 06:18:19;;;;;;;3.58;2.15;;;21.60;68.60;;;;;;4993463;28;20217;-70
2022/06/08 06:20:52;;;;;;;2.30;2.10;;;21.50;68.60;;;;;;4982736;28;20189;-70
2022/06/08 06:23:25;;;;;;;3.33;2.13;;;21.60;68.70;;;;;;4994807;28;20231;-70
2022/06/08 06:25:56;;;;;;;3.10;1.95;;;21.60;68.70;;;;;;4993918;28;20200;-70
2022/06/08 06:28:42;;;;;;;3.63;2.25;;;21.60;68.70;;;;;;4994290;28;20212;-71
2022/06/08 06:31:44;;;;;;;2.47;1.88;;;21.60;68.70;;;;;;4993143;28;20173;-70
2022/06/08 06:34:17;;;;;;;2.17;1.77;;;21.60;68.70;;;;;;4993652;28;20236;-71
2022/06/08 06:36:44;;;;;;;3.58;2.05;;;21.60;68.70;;;;;;4993675;28;20271;-70
2022/06/08 06:39:10;;;;;;;2.35;1.90;;;21.60;68.70;;;;;;4992871;28;20216;-70
2022/06/08 06:41:41;;;;;;;2.25;1.98;;;21.60;68.70;;;;;;4994243;28;20354;-70
2022/06/08 06:44:07;;;;;;;2.70;1.88;;;21.60;68.70;;;;;;4993559;28;20243;-70
2022/06/08 06:46:39;;;;;;;1.98;1.60;;;21.60;68.60;;;;;;4993479;28;20201;-70
2022/06/08 06:49:22;;;;;;;3.00;2.05;;;21.60;68.60;;;;;;4992953;28;20192;-70
2022/06/08 06:51:52;;;;;;;2.20;1.95;;;21.60;68.70;;;;;;5001519;28;20194;-70
2022/06/08 06:54:18;;;;;;;2.88;1.60;;;21.70;68.70;;;;;;5012925;28;20267;-71
2022/06/08 06:56:46;;;;;;;3.50;1.70;;;21.60;68.70;;;;;;5012911;28;20188;-70
2022/06/08 06:59:17;;;;;;;3.95;1.80;;;21.60;68.70;;;;;;5012371;28;20211;-70
2022/06/08 07:01:44;;;;;;;1.95;1.42;;;21.60;68.70;;;;;;5012836;28;20180;-70
2022/06/08 07:04:10;;;;;;;2.25;1.60;;;21.70;68.80;;;;;;4996761;28;20195;-70
2022/06/08 07:06:36;;;;;;;2.55;2.03;;;21.70;68.70;;;;;;5012851;28;20208;-70
2022/06/08 07:09:03;;;;;;;2.80;1.73;;;21.70;68.70;;;;;;5012356;28;20204;-70
2022/06/08 07:11:40;;;;;;;2.15;1.65;;;21.70;68.70;;;;;;5012732;28;20219;-70
2022/06/08 07:14:19;;;;;;;3.17;2.05;;;21.70;68.70;;;;;;5012833;28;20180;-70
2022/06/08 07:16:49;;;;;;;3.33;2.00;;;21.70;68.70;;;;;;5012243;28;20190;-71
2022/06/08 07:19:20;;;;;;;1.70;1.60;;;21.70;68.70;;;;;;5006745;28;20228;-70
2022/06/08 07:21:46;;;;;;;3.17;1.73;;;21.70;68.80;;;;;;4999539;28;20227;-70
2022/06/08 07:24:30;;;;;;;3.97;1.90;;;21.70;68.80;;;;;;4992825;28;20555;-70
2022/06/08 07:26:57;;;;;;;1.95;1.55;;;21.70;68.70;;;;;;4996231;28;20199;-70
2022/06/08 07:29:23;;;;;;;1.83;1.58;;;21.70;68.80;;;;;;5012222;28;20230;-70
2022/06/08 07:31:49;;;;;;;2.38;1.70;;;21.70;68.80;;;;;;5012677;28;20270;-70
2022/06/08 07:34:15;;;;;;;1.90;1.50;;;21.70;68.80;;;;;;5012960;28;20275;-70
2022/06/08 07:36:44;;;;;;;1.92;1.60;;;21.70;68.80;;;;;;5012278;28;20195;-70
2022/06/08 07:39:13;;;;;;;2.35;1.80;;;21.70;68.80;;;;;;5011363;28;20228;-70
2022/06/08 07:41:39;;;;;;;2.00;1.50;;;21.70;68.80;;;;;;5011844;28;20678;-70
2022/06/08 07:44:05;;;;;;;2.83;1.60;;;21.80;69.10;;;;;;5011769;28;20247;-71
2022/06/08 07:46:31;;;;;;;1.70;1.58;;;21.70;68.80;;;;;;5011929;28;20303;-70
2022/06/08 07:51:41;;;;;;;1.95;1.50;;;21.70;68.80;;;;;;5003681;28;20649;-70
2022/06/08 07:54:07;;;;;;;3.17;1.42;;;21.70;68.80;;;;;;5012301;28;20176;-70
2022/06/08 07:56:33;;;;;;;1.98;1.50;;;21.70;68.70;;;;;;5012358;28;20259;-70
2022/06/08 07:58:59;;;;;;;1.60;1.15;;;21.80;68.60;;;;;;5011522;28;20295;-71
2022/06/08 08:01:25;;;;;;;2.25;1.60;;;21.80;68.80;;;;;;5011898;28;20196;-71
2022/06/08 08:03:51;;;;;;;3.17;1.55;;;21.80;68.90;;;;;;5011905;28;20588;-70
2022/06/08 08:06:17;;;;;;;2.17;1.77;;;21.80;68.90;;;;;;5011828;28;20216;-70
2022/06/08 08:08:43;;;;;;;3.13;1.55;;;21.80;68.80;;;;;;5011251;28;20208;-70
2022/06/08 08:11:09;;;;;;;1.60;1.45;;;21.80;68.70;;;;;;5011775;28;20184;-70
2022/06/08 08:13:37;;;;;;;3.15;1.77;;;21.80;68.40;;;;;;5011626;28;20180;-71
2022/06/08 08:16:05;;;;;;;2.55;1.70;;;21.80;68.60;;;;;;4991875;28;20181;-70
2022/06/08 08:18:31;;;;;;;2.63;1.55;;;21.80;68.60;;;;;;4991902;28;20207;-70
2022/06/08 08:20:57;;;;;;;1.92;1.50;;;21.80;68.60;;;;;;5000213;28;20185;-71
2022/06/08 08:23:23;;;;;;;1.65;1.45;;;21.80;68.80;;;;;;5006494;28;20194;-70
2022/06/08 08:25:51;;;;;;;2.33;1.40;;;21.80;68.60;;;;;;5011669;28;20212;-70
2022/06/08 08:28:18;;;;;;;1.52;1.23;;;21.80;68.50;;;;;;5010801;28;20293;-71
2022/06/08 08:30:44;;;;;;;1.95;1.45;;;21.80;68.50;;;;;;5011553;28;20188;-70
2022/06/08 08:33:09;;;;;;;1.15;1.05;;;21.80;68.70;;;;;;5011329;28;20203;-70
2022/06/08 08:35:36;;;;;;;1.73;1.50;;;21.80;68.50;;;;;;4995386;28;20194;-70
2022/06/08 08:38:02;;;;;;;2.13;1.48;;;21.90;68.10;;;;;;5010932;28;20307;-70
2022/06/08 08:40:46;;;;;;;1.38;1.20;;;21.90;68.20;;;;;;5011429;28;20188;-70
2022/06/08 08:43:21;;;;;;;3.35;1.60;;;21.90;68.10;;;;;;4995330;28;20191;-71
2022/06/08 08:46:22;;;;;;;2.17;1.05;;;21.90;68.10;;;;;;5011540;28;20207;-70
2022/06/08 08:49:05;;;;;;;1.55;1.45;;;21.90;68.00;;;;;;4999283;28;20254;-70
2022/06/08 08:51:41;;;;;;;1.80;1.30;;;22.00;68.20;;;;;;5007441;28;20180;-70
2022/06/08 08:54:31;;;;;;;1.60;1.30;;;21.90;68.00;;;;;;4973656;28;20184;-70
2022/06/08 08:57:28;;;;;;;1.75;1.33;;;22.00;68.20;;;;;;4992275;28;20182;-70
2022/06/08 08:59:55;;;;;;;1.30;1.20;;;21.90;67.90;;;;;;4976340;28;20272;-70
2022/06/08 09:05:21;;;;;;;1.85;1.30;;;22.00;67.90;;;;;;4975981;28;20267;-70
2022/06/08 09:07:47;;;;;;;2.33;1.50;;;21.90;67.80;;;;;;4975301;28;20209;-70
2022/06/08 09:10:23;;;;;;;2.72;1.35;;;22.00;68.10;;;;;;4976275;28;20182;-70
2022/06/08 09:12:51;;;;;;;3.40;1.10;;;22.00;68.10;;;;;;4976170;28;20188;-71
2022/06/08 09:15:41;;;;;;;1.75;1.10;;;22.00;68.10;;;;;;4975873;28;20257;-71
2022/06/08 09:18:30;;;;;;;1.92;1.30;;;22.00;68.10;;;;;;4959121;28;20225;-70
2022/06/08 09:20:59;;;;;;;1.13;1.08;;;22.00;68.10;;;;;;5003185;28;20283;-70
2022/06/08 09:23:43;;;;;;;1.33;1.17;;;22.00;68.00;;;;;;5012440;28;20180;-70
2022/06/08 09:26:30;;;;;;;2.15;1.50;;;22.00;67.90;;;;;;4978899;28;20213;-70
2022/06/08 09:29:18;;;;;;;1.65;1.40;;;22.00;68.00;;;;;;4994608;28;20219;-70
2022/06/08 09:31:49;;;;;;;2.33;1.20;;;22.00;68.10;;;;;;4978919;28;20683;-71
2022/06/08 09:34:23;;;;;;;1.80;1.30;;;22.00;68.10;;;;;;4994970;28;20228;-70
2022/06/08 09:37:23;;;;;;;1.98;1.35;;;22.00;68.20;;;;;;4978438;28;20181;-70
2022/06/08 09:39:51;;;;;;;1.73;1.30;;;22.00;68.10;;;;;;4978042;28;20199;-71
2022/06/08 09:42:48;;;;;;;2.35;1.60;;;22.00;68.10;;;;;;4978064;28;20328;-70
2022/06/08 09:45:54;;;;;;;1.35;1.25;;;22.00;67.90;;;;;;4978574;28;20254;-70
2022/06/08 09:51:42;;;;;;;1.35;1.20;;;22.00;67.60;;;;;;4997333;28;20219;-71
2022/06/08 09:54:28;;;;;;;1.60;1.23;;;22.00;67.90;;;;;;4994631;28;20555;-70
2022/06/08 09:57:13;;;;;;;1.50;0.93;;;22.00;67.40;;;;;;4994349;28;20672;-71
2022/06/08 10:00:00;;;;;;;1.30;1.10;;;22.00;67.60;;;;;;4994111;28;20627;-70
2022/06/08 10:02:53;;;;;;;1.23;1.00;;;22.00;67.60;;;;;;4994406;28;20189;-70
2022/06/08 10:05:46;;;;;;;1.55;1.05;;;22.00;67.90;;;;;;4993380;28;20215;-71
2022/06/08 10:08:22;;;;;;;1.98;1.13;;;22.00;67.20;;;;;;4993868;28;20304;-70
2022/06/08 10:11:34;;;;;;;0.90;0.80;;;22.00;67.20;;;;;;4994790;28;20181;-70
2022/06/08 10:14:51;;;;;;;2.28;1.13;;;22.00;67.50;;;;;;4994556;28;20189;-70
2022/06/08 10:17:50;;;;;;;1.63;1.13;;;22.00;67.30;;;;;;4993954;28;20304;-70
2022/06/08 10:20:29;;;;;;;1.58;0.98;;;22.00;67.40;;;;;;4999760;28;20207;-70
2022/06/08 10:23:04;;;;;;;1.15;1.00;;;22.00;67.40;;;;;;5005212;28;20188;-70
2022/06/08 10:25:53;;;;;;;1.25;1.10;;;22.00;67.40;;;;;;5013842;28;20214;-70
2022/06/08 10:28:34;;;;;;;1.10;1.00;;;22.00;67.40;;;;;;5008042;28;20708;-71
2022/06/08 10:31:42;;;;;;;1.23;1.00;;;22.10;67.50;;;;;;4977897;28;20188;-70
2022/06/08 10:34:31;;;;;;;1.15;1.00;;;22.00;67.20;;;;;;4977702;28;20200;-70
2022/06/08 10:37:17;;;;;;;1.45;1.23;;;22.10;67.20;;;;;;4993718;28;20188;-70
2022/06/08 10:39:47;;;;;;;1.48;1.30;;;22.10;67.20;;;;;;4993729;28;20188;-70
2022/06/08 10:45:23;;;;;;;1.05;0.95;;;22.00;67.00;;;;;;4993720;28;20197;-70
2022/06/08 10:48:22;;;;;;;1.15;1.00;;;22.10;67.10;;;;;;4976660;28;20219;-70
2022/06/08 10:51:20;;;;;;;1.23;0.88;;;22.00;66.90;;;;;;4985398;28;20183;-70
2022/06/08 10:56:35;;;;;;;1.35;1.25;;;22.10;67.20;;;;;;5013134;28;20189;-70
2022/06/08 10:59:07;;;;;;;1.15;1.05;;;22.00;67.10;;;;;;4996371;28;20231;-71
2022/06/08 11:02:10;;;;;;;1.90;1.05;;;22.10;66.90;;;;;;4996802;28;20246;-70
2022/06/08 11:04:49;;;;;;;1.73;0.98;;;22.10;66.60;;;;;;4996560;28;20184;-70
2022/06/08 11:07:18;;;;;;;1.05;1.00;;;22.10;66.70;;;;;;4996499;28;20207;-70
2022/06/08 11:09:51;;;;;;;1.80;0.95;;;22.10;66.60;;;;;;4996812;28;20184;-70
2022/06/08 11:13:05;;;;;;;1.33;0.93;;;22.10;66.70;;;;;;4996801;28;20180;-70
2022/06/08 11:15:45;;;;;;;1.08;0.88;;;22.10;66.50;;;;;;4996285;28;20211;-70
2022/06/08 11:18:58;;;;;;;0.98;0.90;;;22.10;66.30;;;;;;5012059;28;20215;-70
2022/06/08 11:21:50;;;;;;;1.55;1.15;;;22.10;66.60;;;;;;4992209;28;20667;-70
2022/06/08 11:24:25;;;;;;;1.38;0.93;;;22.10;66.60;;;;;;4973747;28;20178;-70
2022/06/08 11:27:20;;;;;;;1.38;0.90;;;22.10;66.70;;;;;;4957551;28;20213;-70
2022/06/08 11:29:51;;;;;;;1.00;0.80;;;22.10;66.60;;;;;;4983783;28;20298;-71
2022/06/08 11:32:33;;;;;;;1.20;1.10;;;22.10;66.40;;;;;;4973183;28;20189;-70
2022/06/08 11:35:46;;;;;;;0.93;0.88;;;22.10;66.60;;;;;;4989727;28;20178;-70
2022/06/08 11:39:05;;;;;;;1.40;0.90;;;22.10;66.60;;;;;;4956584;28;20205;-70
2022/06/08 11:41:41;;;;;;;1.17;0.80;;;22.10;66.50;;;;;;4974059;28;20260;-71
2022/06/08 11:44:19;;;;;;;1.10;1.00;;;22.10;66.40;;;;;;4972710;28;20185;-70
2022/06/08 11:47:14;;;;;;;1.15;0.93;;;22.10;66.30;;;;;;4956835;28;20205;-70
2022/06/08 11:49:52;;;;;;;1.20;0.75;;;22.10;66.40;;;;;;4965283;28;20200;-70
2022/06/08 11:52:36;;;;;;;1.52;1.10;;;22.10;66.40;;;;;;4981734;28;20197;-70
2022/06/08 11:55:18;;;;;;;1.38;0.90;;;22.10;66.40;;;;;;4992441;28;20184;-70
2022/06/08 11:57:49;;;;;;;1.73;0.90;;;22.10;66.40;;;;;;4991924;28;20201;-69
2022/06/08 12:00:31;;;;;;;0.80;0.80;;;22.20;66.30;;;;;;4992996;28;20212;-69
2022/06/08 12:03:44;;;;;;;1.00;0.90;;;22.10;66.30;;;;;;4992893;28;20244;-71
2022/06/08 12:06:13;;;;;;;1.10;0.80;;;22.20;66.40;;;;;;4992879;28;20706;-70
2022/06/08 12:08:55;;;;;;;1.42;1.00;;;22.10;66.30;;;;;;4992134;28;20582;-70
2022/06/08 12:11:25;;;;;;;1.00;1.00;;;22.10;66.10;;;;;;4992600;28;20193;-70
2022/06/08 12:13:55;;;;;;;1.00;0.90;;;22.20;66.50;;;;;;4992300;28;20181;-71
2022/06/08 12:16:35;;;;;;;1.08;0.98;;;22.20;66.30;;;;;;4992839;28;20185;-70
2022/06/08 12:19:04;;;;;;;1.10;1.00;;;22.10;66.00;;;;;;4991796;28;20224;-70
2022/06/08 12:21:40;;;;;;;1.77;1.00;;;22.20;66.30;;;;;;4983844;28;20189;-70
2022/06/08 12:24:11;;;;;;;1.45;1.00;;;22.20;66.50;;;;;;4972782;28;20193;-70
2022/06/08 12:27:00;;;;;;;2.75;1.10;;;22.20;66.50;;;;;;4956561;28;20280;-70
2022/06/08 12:29:50;;;;;;;1.13;1.02;;;22.20;66.40;;;;;;4972116;28;20184;-70
2022/06/08 12:32:24;;;;;;;1.50;1.00;;;22.20;66.20;;;;;;4972781;28;20763;-70
2022/06/08 12:35:22;;;;;;;1.67;1.00;;;22.20;66.10;;;;;;4956856;28;20180;-70
2022/06/08 12:37:48;;;;;;;0.93;0.85;;;22.20;66.00;;;;;;4972144;28;20205;-71
2022/06/08 12:40:17;;;;;;;1.48;1.10;;;22.20;66.00;;;;;;4956658;28;20181;-70
2022/06/08 12:42:57;;;;;;;0.98;0.85;;;22.20;66.10;;;;;;4956783;28;20289;-70
2022/06/08 12:45:35;;;;;;;1.73;0.88;;;22.20;66.20;;;;;;4956502;28;20248;-70
2022/06/08 12:48:49;;;;;;;1.40;1.17;;;22.20;66.10;;;;;;4971909;28;20214;-71
2022/06/08 12:51:33;;;;;;;0.77;0.70;;;22.20;65.90;;;;;;4984646;28;20215;-70
2022/06/08 12:54:25;;;;;;;0.90;0.80;;;22.20;65.70;;;;;;4994778;28;20191;-70
2022/06/08 12:56:56;;;;;;;1.95;0.93;;;22.20;66.30;;;;;;5011325;28;20185;-70
2022/06/08 12:59:23;;;;;;;1.50;0.80;;;22.20;66.80;;;;;;5010996;28;20184;-70
2022/06/08 13:01:50;;;;;;;1.48;0.95;;;22.20;66.30;;;;;;4995186;28;20176;-70
2022/06/08 13:04:21;;;;;;;1.98;0.95;;;22.20;66.30;;;;;;4994885;28;20254;-70
2022/06/08 13:06:47;;;;;;;2.05;1.17;;;22.20;66.00;;;;;;5011316;28;20214;-70
2022/06/08 13:09:17;;;;;;;1.48;0.90;;;22.20;66.00;;;;;;5010629;28;20215;-70
2022/06/08 13:11:46;;;;;;;3.60;1.20;;;22.20;66.20;;;;;;5011428;28;20259;-69
2022/06/08 13:14:19;;;;;;;2.47;1.02;;;22.20;65.90;;;;;;5011237;28;20184;-70
2022/06/08 13:16:46;;;;;;;1.10;1.00;;;22.20;66.00;;;;;;5010996;28;20187;-70
2022/06/08 13:19:15;;;;;;;1.92;0.90;;;22.20;65.80;;;;;;5006035;28;20222;-70
2022/06/08 13:21:43;;;;;;;1.10;0.95;;;22.20;66.00;;;;;;5000421;28;20193;-70
2022/06/08 13:24:10;;;;;;;2.38;1.05;;;22.20;65.70;;;;;;4995690;28;20184;-69
2022/06/08 13:26:38;;;;;;;1.45;0.90;;;22.20;65.80;;;;;;4993461;28;20204;-71
2022/06/08 13:29:05;;;;;;;1.40;1.00;;;22.20;66.00;;;;;;4992752;28;20583;-70
2022/06/08 13:31:31;;;;;;;0.98;0.90;;;22.20;65.90;;;;;;4992630;28;20690;-72
2022/06/08 13:34:05;;;;;;;2.45;0.98;;;22.20;66.00;;;;;;4992547;28;20332;-70
2022/06/08 13:36:50;;;;;;;3.20;1.20;;;22.20;66.30;;;;;;4991244;28;20236;-69
2022/06/08 13:39:27;;;;;;;1.23;1.13;;;22.20;66.30;;;;;;4974896;28;20212;-70
2022/06/08 13:42:10;;;;;;;1.52;1.00;;;22.20;66.30;;;;;;4994273;28;20184;-71
2022/06/08 13:44:47;;;;;;;1.67;0.98;;;22.20;66.40;;;;;;4995735;28;20600;-71
2022/06/08 13:47:28;;;;;;;1.00;0.95;;;22.20;66.30;;;;;;4994371;28;20575;-70
2022/06/08 13:50:11;;;;;;;1.70;1.20;;;22.20;66.30;;;;;;4996906;28;20225;-71